Dole-Tavaux Airport


Codes: LFGJ/DLE
Name: Dole-Tavaux Airport
City: Dole/Tavaux
Country: France
Elevation: 645 ft.

Photos at Dole-Tavaux Airport


   Photos courtesy of SpottingLog. You can add your own sightings and photos by signing up for a free trial today.



No photos found.

Weather at Dole-Tavaux Airport


Time (UTC)DescriptionTempratureWindCloud coverageVisibilityPressureHumidity
15-Apr-2024 15:00Broken Clouds20°C18 mph, SW68%10000m1014hPa37%
15-Apr-2024 18:00Broken Clouds17°C16 mph, SW73%10000m1014hPa48%
15-Apr-2024 21:00Light Rain14°C18 mph, SW89%10000m1014hPa62%
16-Apr-2024 00:00Light Rain9°C9 mph, W100%10000m1015hPa86%
16-Apr-2024 03:00Light Rain6°C9 mph, W100%10000m1016hPa91%
16-Apr-2024 06:00Light Rain5°C9 mph, SW95%10000m1017hPa88%
16-Apr-2024 09:00Overcast Clouds7°C11 mph, SW100%10000m1017hPa78%
16-Apr-2024 12:00Light Rain8°C9 mph, SW92%10000m1016hPa76%
16-Apr-2024 15:00Light Rain9°C9 mph, W100%9803m1015hPa81%
16-Apr-2024 18:00Light Rain8°C9 mph, NW100%6275m1014hPa86%
16-Apr-2024 21:00Light Rain6°C9 mph, NW100%10000m1016hPa93%
17-Apr-2024 00:00Overcast Clouds5°C2 mph, W100%10000m1016hPa94%
17-Apr-2024 03:00Light Rain2°C2 mph, NW67%10000m1016hPa95%
17-Apr-2024 06:00Broken Clouds3°C0 mph, NE51%10000m1017hPa92%
17-Apr-2024 09:00Light Rain7°C4 mph, NW44%10000m1017hPa67%
17-Apr-2024 12:00Light Rain7°C4 mph, W68%9729m1016hPa76%
17-Apr-2024 15:00Light Rain8°C7 mph, SW93%10000m1014hPa77%
17-Apr-2024 18:00Light Rain6°C7 mph, S96%10000m1014hPa90%
17-Apr-2024 21:00Light Rain4°C4 mph, W100%10000m1015hPa97%
18-Apr-2024 00:00Light Rain3°C7 mph, N100%0m1015hPa99%
18-Apr-2024 03:00Snow3°C2 mph, W100%6826m1016hPa97%
18-Apr-2024 06:00Light Snow3°C2 mph, N99%10000m1017hPa95%
18-Apr-2024 09:00Light Rain3°C4 mph, N100%0m1019hPa98%
18-Apr-2024 12:00Light Rain7°C7 mph, N98%10000m1019hPa79%
18-Apr-2024 15:00Light Rain9°C11 mph, N85%10000m1019hPa77%
18-Apr-2024 18:00Light Rain6°C7 mph, N62%10000m1020hPa90%
18-Apr-2024 21:00Clear Sky3°C4 mph, N5%10000m1023hPa94%
19-Apr-2024 00:00Clear Sky2°C4 mph, NE5%10000m1024hPa95%
19-Apr-2024 03:00Clear Sky1°C4 mph, NE6%10000m1025hPa94%
19-Apr-2024 06:00Few Clouds2°C0 mph, N14%10000m1025hPa89%
19-Apr-2024 09:00Scattered Clouds9°C4 mph, W38%10000m1025hPa65%
19-Apr-2024 12:00Scattered Clouds13°C7 mph, W49%10000m1023hPa49%
19-Apr-2024 15:00Overcast Clouds12°C9 mph, NW99%10000m1022hPa63%
19-Apr-2024 18:00Light Rain9°C4 mph, NW100%10000m1022hPa81%
19-Apr-2024 21:00Light Rain7°C2 mph, SW100%10000m1023hPa94%
20-Apr-2024 00:00Light Rain7°C4 mph, SW100%10000m1023hPa96%
20-Apr-2024 03:00Overcast Clouds7°C2 mph, NW97%10000m1023hPa96%
20-Apr-2024 06:00Broken Clouds5°C7 mph, N70%10000m1025hPa96%
20-Apr-2024 09:00Broken Clouds9°C9 mph, N69%10000m1025hPa74%
20-Apr-2024 12:00Broken Clouds11°C11 mph, N56%10000m1025hPa58%